createdAt,value
2018-08-18T00:00:20.622Z,15.67
2018-08-18T00:02:49.790Z,13.63
2018-08-18T00:05:19.110Z,18.17
2018-08-18T00:07:48.363Z,15.13
2018-08-18T00:10:20.806Z,15.23
2018-08-18T00:12:49.993Z,16.90
2018-08-18T00:15:19.506Z,17.43
2018-08-18T00:17:48.659Z,18.53
2018-08-18T00:20:25.109Z,17.97
2018-08-18T00:22:54.267Z,17.17
2018-08-18T00:25:23.851Z,16.67
2018-08-18T00:27:55.275Z,14.80
2018-08-18T00:30:28.614Z,14.93
2018-08-18T00:32:57.779Z,15.77
2018-08-18T00:35:28.204Z,14.53
2018-08-18T00:37:57.479Z,14.40
2018-08-18T00:40:27.876Z,16.07
2018-08-18T00:42:57.072Z,16.67
2018-08-18T00:45:26.251Z,14.17
2018-08-18T00:47:55.489Z,15.43
2018-08-18T00:50:41.555Z,15.90
2018-08-18T00:53:11.888Z,16.70
2018-08-18T00:55:41.056Z,16.87
2018-08-18T00:58:21.715Z,15.50
2018-08-18T01:00:56.118Z,18.20
2018-08-18T01:03:25.287Z,18.57
2018-08-18T01:05:58.964Z,16.97
2018-08-18T01:08:28.447Z,17.37
2018-08-18T01:10:57.683Z,18.70
2018-08-18T01:13:28.240Z,19.97
2018-08-18T01:15:57.399Z,20.63
2018-08-18T01:18:26.555Z,20.37
2018-08-18T01:20:56.155Z,20.60
2018-08-18T01:23:25.326Z,20.10
2018-08-18T01:25:55.303Z,23.45
2018-08-18T01:28:25.407Z,20.88
2018-08-18T01:31:12.274Z,22.24
2018-08-18T01:33:41.440Z,22.33
2018-08-18T01:36:10.595Z,21.17
2018-08-18T01:38:40.059Z,19.42
2018-08-18T01:41:23.886Z,21.05
2018-08-18T01:44:16.331Z,22.97
2018-08-18T01:46:47.452Z,19.50
2018-08-18T01:49:37.700Z,19.27
2018-08-18T01:52:16.103Z,20.52
2018-08-18T01:54:45.935Z,22.90
2018-08-18T01:57:17.896Z,20.40
2018-08-18T01:59:47.565Z,20.10
2018-08-18T02:02:25.995Z,21.37
2018-08-18T02:05:04.978Z,19.73
2018-08-18T02:07:34.504Z,24.92
2018-08-18T02:10:03.827Z,18.97
2018-08-18T02:12:35.498Z,21.45
2018-08-18T02:15:04.803Z,21.03
2018-08-18T02:17:35.195Z,21.00
2018-08-18T02:20:05.461Z,20.10
2018-08-18T02:22:34.579Z,21.00
2018-08-18T02:25:03.758Z,24.05
2018-08-18T02:27:32.918Z,20.30
2018-08-18T02:30:18.191Z,19.43
2018-08-18T02:32:47.382Z,19.13
2018-08-18T02:35:16.549Z,22.53
2018-08-18T02:37:45.733Z,21.37
2018-08-18T02:40:17.122Z,25.23
2018-08-18T02:42:46.283Z,19.93
2018-08-18T02:45:16.259Z,19.77
2018-08-18T02:47:45.423Z,20.55
2018-08-18T02:50:15.151Z,21.07
2018-08-18T02:52:44.297Z,18.67
2018-08-18T02:55:13.606Z,20.97
2018-08-18T02:57:43.863Z,18.23
2018-08-18T03:00:26.920Z,18.83
2018-08-18T03:02:56.086Z,19.83
2018-08-18T03:05:25.280Z,19.60
2018-08-18T03:07:54.453Z,21.57
2018-08-18T03:10:24.752Z,20.07
2018-08-18T03:13:00.138Z,19.83
2018-08-18T03:16:04.610Z,20.73
2018-08-18T03:18:45.815Z,21.13
2018-08-18T03:21:15.279Z,20.40
2018-08-18T03:24:01.499Z,20.60
2018-08-18T03:26:35.626Z,20.80
2018-08-18T03:29:04.853Z,23.53
2018-08-18T03:31:34.067Z,21.87
2018-08-18T03:34:03.771Z,22.85
2018-08-18T03:36:36.766Z,22.82
2018-08-18T03:39:12.302Z,19.77
2018-08-18T03:41:41.475Z,21.83
2018-08-18T03:44:10.644Z,21.25
2018-08-18T03:46:39.810Z,20.37
2018-08-18T03:49:08.969Z,19.00
2018-08-18T03:51:45.469Z,21.53
2018-08-18T03:54:14.689Z,20.90
2018-08-18T03:56:44.080Z,19.97
2018-08-18T03:59:13.259Z,21.17
2018-08-18T04:01:58.331Z,21.77
2018-08-18T04:04:32.000Z,21.68
2018-08-18T04:07:01.752Z,21.50
2018-08-18T04:09:32.027Z,20.67
2018-08-18T04:12:03.018Z,22.03
2018-08-18T04:14:37.494Z,20.93
2018-08-18T04:17:19.953Z,19.83
2018-08-18T04:19:49.234Z,22.17
2018-08-18T04:22:18.550Z,21.40
2018-08-18T04:24:48.766Z,18.62
2018-08-18T04:27:36.767Z,21.50
2018-08-18T04:30:10.710Z,20.25
2018-08-18T04:32:59.790Z,20.03
2018-08-18T04:35:30.113Z,19.50
2018-08-18T04:38:02.507Z,18.83
2018-08-18T04:40:31.880Z,20.10
2018-08-18T04:43:01.800Z,17.90
2018-08-18T04:45:30.974Z,16.93
2018-08-18T04:48:01.978Z,17.54
2018-08-18T04:50:31.202Z,17.70
2018-08-18T04:53:01.115Z,15.85
2018-08-18T04:55:30.262Z,17.17
2018-08-18T04:57:59.425Z,16.47
2018-08-18T05:02:17.575Z,18.17
2018-08-18T05:04:46.731Z,20.27
2018-08-18T05:07:15.895Z,18.23
2018-08-18T05:09:45.045Z,20.17
2018-08-18T05:12:14.207Z,19.27
2018-08-18T05:14:43.358Z,17.20
2018-08-18T05:17:12.526Z,19.77
2018-08-18T05:19:41.670Z,21.67
2018-08-18T05:22:10.830Z,20.13
2018-08-18T05:24:39.975Z,21.75
2018-08-18T05:27:14.410Z,21.27
2018-08-18T05:29:43.567Z,18.93
2018-08-18T05:32:12.733Z,22.47
2018-08-18T05:34:41.874Z,20.17
2018-08-18T05:37:11.763Z,22.32
2018-08-18T05:39:40.906Z,22.98
2018-08-18T05:42:10.074Z,22.77
2018-08-18T05:44:40.349Z,21.57
2018-08-18T05:47:09.619Z,22.67
2018-08-18T05:49:43.552Z,21.14
2018-08-18T05:52:12.710Z,21.05
2018-08-18T05:54:41.850Z,20.07
2018-08-18T05:57:12.084Z,21.93
2018-08-18T05:59:41.366Z,20.30
2018-08-18T06:02:10.543Z,19.40
2018-08-18T06:04:39.699Z,23.97
2018-08-18T06:07:10.238Z,24.07
2018-08-18T06:09:40.322Z,21.90
2018-08-18T06:12:15.576Z,24.10
2018-08-18T06:14:49.474Z,24.75
2018-08-18T06:17:24.107Z,22.43
2018-08-18T06:19:53.259Z,22.70
2018-08-18T06:22:22.411Z,23.10
2018-08-18T06:24:52.359Z,24.83
2018-08-18T06:27:25.450Z,20.37
2018-08-18T06:29:54.598Z,21.50
2018-08-18T06:32:23.788Z,21.90
2018-08-18T06:34:53.056Z,23.50
2018-08-18T06:37:22.124Z,22.23
2018-08-18T06:39:57.646Z,25.83
2018-08-18T06:42:39.998Z,28.10
2018-08-18T06:45:12.862Z,28.63
2018-08-18T06:47:42.590Z,26.90
2018-08-18T06:50:13.979Z,23.47
2018-08-18T06:52:43.760Z,25.27
2018-08-18T06:55:17.157Z,24.93
2018-08-18T06:57:52.838Z,23.90
2018-08-18T07:00:24.342Z,27.20
2018-08-18T07:02:53.527Z,23.70
2018-08-18T07:05:22.674Z,25.10
2018-08-18T07:07:51.831Z,22.87
2018-08-18T07:10:31.987Z,23.40
2018-08-18T07:13:03.854Z,23.60
2018-08-18T07:15:37.140Z,23.83
2018-08-18T07:18:09.079Z,23.93
2018-08-18T07:20:38.395Z,24.70
2018-08-18T07:23:08.046Z,26.30
2018-08-18T07:25:46.748Z,26.30
2018-08-18T07:28:19.582Z,23.30
2018-08-18T07:30:48.727Z,24.15
2018-08-18T07:33:17.869Z,23.77
2018-08-18T07:35:47.007Z,22.50
2018-08-18T07:38:16.162Z,23.90
2018-08-18T07:40:47.226Z,26.30
2018-08-18T07:43:21.574Z,21.17
2018-08-18T07:45:51.782Z,23.00
2018-08-18T07:48:20.947Z,22.90
2018-08-18T07:50:50.439Z,26.00
2018-08-18T07:53:19.734Z,20.90
2018-08-18T07:55:48.774Z,26.70
2018-08-18T07:58:20.031Z,25.27
2018-08-18T08:00:49.174Z,28.00
2018-08-18T08:03:18.946Z,22.13
2018-08-18T08:05:48.213Z,22.10
2018-08-18T08:08:17.282Z,25.33
2018-08-18T08:10:46.435Z,24.47
2018-08-18T08:13:16.042Z,19.27
2018-08-18T08:15:45.202Z,20.60
2018-08-18T08:18:15.983Z,20.37
2018-08-18T08:20:45.034Z,19.23
2018-08-18T08:23:14.199Z,19.15
2018-08-18T08:25:43.346Z,19.42
2018-08-18T08:28:12.978Z,21.00
2018-08-18T08:30:42.140Z,18.37
2018-08-18T08:33:13.602Z,20.45
2018-08-18T08:35:42.830Z,24.43
2018-08-18T08:38:11.982Z,20.33
2018-08-18T08:40:41.146Z,19.33
2018-08-18T08:43:19.583Z,17.00
2018-08-18T08:45:48.674Z,20.77
2018-08-18T08:48:17.823Z,21.90
2018-08-18T08:50:46.979Z,20.77
2018-08-18T08:53:16.130Z,17.30
2018-08-18T08:55:45.287Z,17.40
2018-08-18T08:58:14.438Z,18.40
2018-08-18T09:00:43.598Z,17.17
2018-08-18T09:03:12.754Z,20.37
2018-08-18T09:05:41.982Z,16.50
2018-08-18T09:08:11.670Z,20.00
2018-08-18T09:10:41.797Z,15.93
2018-08-18T09:13:11.904Z,16.97
2018-08-18T09:15:41.975Z,17.17
2018-08-18T09:18:19.246Z,16.37
2018-08-18T09:20:48.414Z,17.43
2018-08-18T09:23:17.555Z,14.10
2018-08-18T09:25:46.706Z,12.18
2018-08-18T09:28:15.870Z,14.43
2018-08-18T09:30:45.118Z,16.67
2018-08-18T09:33:14.262Z,15.00
2018-08-18T09:36:00.038Z,14.60
2018-08-18T09:38:29.182Z,14.53
2018-08-18T09:40:58.338Z,15.03
2018-08-18T09:43:27.522Z,15.15
2018-08-18T09:45:57.434Z,15.70
2018-08-18T09:48:26.930Z,13.07
2018-08-18T09:50:57.372Z,10.47
2018-08-18T09:53:26.532Z,13.47
2018-08-18T09:55:55.682Z,14.93
2018-08-18T09:58:24.839Z,13.77
2018-08-18T10:00:53.995Z,12.43
2018-08-18T10:03:23.134Z,14.15
2018-08-18T10:05:52.292Z,14.53
2018-08-18T10:08:21.431Z,11.35
2018-08-18T10:10:50.598Z,13.93
2018-08-18T10:13:19.742Z,11.00
2018-08-18T10:15:48.902Z,13.53
2018-08-18T10:18:18.068Z,11.93
2018-08-18T10:20:51.634Z,12.55
2018-08-18T10:23:21.034Z,11.77
2018-08-18T10:25:50.182Z,12.33
2018-08-18T10:28:19.536Z,12.07
2018-08-18T10:30:48.682Z,10.50
2018-08-18T10:33:18.388Z,13.20
2018-08-18T10:35:48.406Z,11.12
2018-08-18T10:38:19.990Z,13.03
2018-08-18T10:40:49.135Z,11.17
2018-08-18T10:43:18.570Z,12.78
2018-08-18T10:45:47.714Z,10.23
2018-08-18T10:48:16.870Z,8.93
2018-08-18T10:51:21.202Z,13.83
2018-08-18T10:53:51.142Z,11.43
2018-08-18T10:56:20.445Z,10.60
2018-08-18T10:59:13.095Z,10.85
2018-08-18T11:02:18.778Z,11.05
2018-08-18T11:04:47.934Z,13.48
2018-08-18T11:07:17.191Z,11.25
2018-08-18T11:09:46.346Z,10.65
2018-08-18T11:12:15.502Z,10.10
2018-08-18T11:14:48.738Z,10.90
2018-08-18T11:17:18.176Z,10.93
2018-08-18T11:19:47.327Z,10.67
2018-08-18T11:23:25.558Z,10.27
2018-08-18T11:25:57.090Z,9.43
2018-08-18T11:28:26.302Z,10.13
2018-08-18T11:30:55.796Z,11.10
2018-08-18T11:33:40.874Z,8.97
2018-08-18T11:36:10.886Z,8.87
2018-08-18T11:38:40.122Z,7.83
2018-08-18T11:41:09.272Z,8.70
2018-08-18T11:43:47.382Z,7.40
2018-08-18T11:46:16.538Z,11.18
2018-08-18T11:48:45.754Z,11.70
2018-08-18T11:51:14.890Z,8.50
2018-08-18T11:54:00.190Z,7.90
2018-08-18T11:56:29.359Z,9.40
2018-08-18T11:59:08.122Z,9.73
2018-08-18T12:01:38.594Z,9.40
2018-08-18T12:04:07.918Z,11.63
2018-08-18T12:06:58.339Z,8.37
2018-08-18T12:09:28.203Z,8.10
2018-08-18T12:11:57.466Z,8.47
2018-08-18T12:14:26.611Z,9.63
2018-08-18T12:16:55.752Z,10.30
2018-08-18T12:19:24.902Z,9.70
2018-08-18T12:21:55.562Z,8.67
2018-08-18T12:24:24.718Z,10.27
2018-08-18T12:27:09.406Z,7.80
2018-08-18T12:29:38.632Z,7.50
2018-08-18T12:32:18.132Z,8.50
2018-08-18T12:34:47.462Z,7.80
2018-08-18T12:37:16.660Z,8.30
2018-08-18T12:39:45.763Z,11.73
2018-08-18T12:42:18.986Z,7.33
2018-08-18T12:44:48.151Z,8.88
2018-08-18T12:47:17.291Z,8.63
2018-08-18T12:49:46.633Z,8.77
2018-08-18T12:52:15.754Z,9.57
2018-08-18T12:54:45.019Z,8.77
2018-08-18T12:57:14.519Z,7.23
2018-08-18T12:59:43.727Z,7.83
2018-08-18T13:02:12.873Z,11.53
2018-08-18T13:04:42.030Z,8.67
2018-08-18T13:07:11.175Z,9.60
2018-08-18T13:09:40.322Z,8.10
2018-08-18T13:12:09.927Z,8.65
2018-08-18T13:14:39.079Z,9.30
2018-08-18T13:17:09.079Z,6.97
2018-08-18T13:19:39.118Z,7.07
2018-08-18T13:22:08.258Z,8.33
2018-08-18T13:24:37.410Z,8.57
2018-08-18T13:27:06.554Z,7.13
2018-08-18T13:29:35.703Z,9.47
2018-08-18T13:32:04.844Z,8.83
2018-08-18T13:34:33.995Z,8.43
2018-08-18T13:37:03.131Z,8.23
2018-08-18T13:39:32.287Z,7.87
2018-08-18T13:42:19.224Z,7.80
2018-08-18T13:44:48.391Z,8.37
2018-08-18T13:47:17.598Z,6.45
2018-08-18T13:49:47.034Z,6.78
2018-08-18T13:52:16.930Z,7.17
2018-08-18T13:54:52.998Z,7.05
2018-08-18T13:57:26.406Z,8.30
2018-08-18T13:59:55.598Z,7.47
2018-08-18T14:02:24.921Z,6.40
2018-08-18T14:04:54.087Z,8.15
2018-08-18T14:07:23.315Z,7.07
2018-08-18T14:09:57.802Z,8.00
2018-08-18T14:12:26.970Z,10.68
2018-08-18T14:14:56.126Z,7.03
2018-08-18T14:17:25.273Z,9.60
2018-08-18T14:19:54.399Z,8.23
2018-08-18T14:22:23.594Z,9.13
2018-08-18T14:24:52.730Z,8.00
2018-08-18T14:27:23.430Z,9.80
2018-08-18T14:29:52.575Z,18.40
2018-08-18T14:32:27.758Z,12.10
2018-08-18T14:35:01.978Z,8.10
2018-08-18T14:37:31.138Z,8.07
2018-08-18T14:40:00.295Z,10.00
2018-08-18T14:42:29.503Z,6.90
2018-08-18T14:44:59.796Z,6.53
2018-08-18T14:47:28.947Z,8.73
2018-08-18T14:50:16.014Z,10.10
2018-08-18T14:52:46.003Z,8.83
2018-08-18T14:55:15.666Z,8.47
2018-08-18T14:57:50.975Z,7.63
2018-08-18T15:00:20.682Z,6.87
2018-08-18T15:02:49.830Z,10.33
2018-08-18T15:05:19.511Z,6.80
2018-08-18T15:07:50.338Z,7.95
2018-08-18T15:10:37.234Z,9.97
2018-08-18T15:13:07.063Z,8.70
2018-08-18T15:15:36.557Z,7.20
2018-08-18T15:18:08.839Z,7.80
2018-08-18T15:20:38.942Z,9.00
2018-08-18T15:23:09.177Z,7.03
2018-08-18T15:25:39.391Z,6.73
2018-08-18T15:28:10.850Z,7.90
2018-08-18T15:30:41.266Z,7.40
2018-08-18T15:33:11.728Z,7.43
2018-08-18T15:35:41.345Z,6.63
2018-08-18T15:38:11.123Z,6.43
2018-08-18T15:40:40.523Z,7.27
2018-08-18T15:43:09.683Z,8.60
2018-08-18T15:46:01.754Z,7.60
2018-08-18T15:48:30.919Z,9.55
2018-08-18T15:51:01.079Z,7.33
2018-08-18T15:53:49.222Z,8.10
2018-08-18T15:56:19.330Z,8.57
2018-08-18T15:58:49.461Z,10.13
2018-08-18T16:01:20.922Z,7.33
2018-08-18T16:08:55.668Z,8.17
2018-08-18T16:11:24.895Z,7.30
2018-08-18T16:13:54.092Z,9.23
2018-08-18T16:16:23.202Z,8.57
2018-08-18T16:19:02.531Z,8.67
2018-08-18T16:21:34.346Z,7.60
2018-08-18T16:24:03.576Z,7.97
2018-08-18T16:26:32.674Z,9.90
2018-08-18T16:29:01.814Z,9.30
2018-08-18T16:31:30.959Z,9.17
2018-08-18T16:34:00.138Z,8.37
2018-08-18T16:36:34.659Z,11.17
2018-08-18T16:39:04.091Z,9.73
2018-08-18T16:41:33.250Z,11.63
2018-08-18T16:44:02.394Z,9.68
2018-08-18T16:46:32.078Z,10.30
2018-08-18T16:49:01.226Z,9.27
2018-08-18T16:51:30.370Z,12.40
2018-08-18T16:54:18.749Z,12.00
2018-08-18T16:56:47.916Z,13.37
2018-08-18T16:59:17.057Z,10.47
2018-08-18T17:01:46.207Z,8.07
2018-08-18T17:04:19.694Z,8.50
2018-08-18T17:06:48.965Z,8.30
2018-08-18T17:09:37.238Z,9.67
2018-08-18T17:12:17.966Z,10.10
2018-08-18T17:14:47.190Z,8.70
2018-08-18T17:17:16.399Z,6.92
2018-08-18T17:19:45.545Z,8.00
2018-08-18T17:22:15.920Z,7.53
2018-08-18T17:24:45.059Z,8.77
2018-08-18T17:27:14.234Z,9.90
2018-08-18T17:29:44.958Z,7.73
2018-08-18T17:32:14.106Z,9.17
2018-08-18T17:34:43.246Z,8.90
2018-08-18T17:37:12.406Z,9.37
2018-08-18T17:39:41.542Z,9.43
2018-08-18T17:42:10.704Z,9.70
2018-08-18T17:44:39.843Z,10.43
2018-08-18T17:47:10.690Z,12.53
2018-08-18T17:49:46.390Z,13.83
2018-08-18T17:52:15.553Z,13.87
2018-08-18T17:55:01.139Z,11.80
2018-08-18T17:57:30.318Z,10.10
2018-08-18T18:00:03.602Z,8.57
2018-08-18T18:02:33.182Z,8.43
2018-08-18T18:07:46.598Z,8.93
2018-08-18T18:10:17.410Z,15.93
2018-08-18T18:12:46.563Z,14.93
2018-08-18T18:15:29.198Z,9.50
2018-08-18T18:17:59.075Z,8.70
2018-08-18T18:20:30.942Z,11.55
2018-08-18T18:23:00.184Z,10.40
2018-08-18T18:25:29.577Z,8.77
2018-08-18T18:28:00.630Z,8.00
2018-08-18T18:30:30.118Z,11.00
2018-08-18T18:32:59.266Z,7.60
2018-08-18T18:35:28.418Z,8.43
2018-08-18T18:38:00.443Z,9.20
2018-08-18T18:40:38.744Z,9.33
2018-08-18T18:43:07.984Z,9.93
2018-08-18T18:45:37.165Z,9.03
2018-08-18T18:48:07.214Z,8.00
2018-08-18T18:50:36.350Z,8.47
2018-08-18T18:53:05.542Z,8.97
2018-08-18T18:55:42.144Z,8.17
2018-08-18T18:58:14.350Z,7.90
2018-08-18T19:01:01.335Z,9.00
2018-08-18T19:03:30.575Z,12.13
2018-08-18T19:05:59.782Z,10.53
2018-08-18T19:08:28.938Z,11.13
2018-08-18T19:10:58.204Z,9.70
2018-08-18T19:13:27.706Z,9.93
2018-08-18T19:15:56.956Z,9.63
2018-08-18T19:18:26.098Z,9.33
2018-08-18T19:20:55.239Z,9.60
2018-08-18T19:23:24.386Z,8.43
2018-08-18T19:25:53.546Z,9.73
2018-08-18T19:28:23.413Z,11.17
2018-08-18T19:30:52.566Z,9.03
2018-08-18T19:33:21.714Z,7.67
2018-08-18T19:35:52.287Z,9.90
2018-08-18T19:38:22.603Z,9.70
2018-08-18T19:40:54.183Z,9.10
2018-08-18T19:43:25.402Z,9.13
2018-08-18T19:45:55.122Z,10.30
2018-08-18T19:48:25.415Z,12.80
2018-08-18T19:51:00.099Z,11.13
2018-08-18T19:53:30.848Z,9.77
2018-08-18T19:56:01.094Z,11.00
2018-08-18T19:58:30.724Z,11.37
2018-08-18T20:01:00.010Z,11.53
2018-08-18T20:03:29.156Z,10.40
2018-08-18T20:05:58.374Z,10.03
2018-08-18T20:08:28.342Z,12.40
2018-08-18T20:10:58.878Z,12.10
2018-08-18T20:13:29.189Z,11.23
2018-08-18T20:15:59.743Z,12.97
2018-08-18T20:18:28.901Z,12.97
2018-08-18T20:20:58.843Z,10.47
2018-08-18T20:23:27.990Z,10.60
2018-08-18T20:25:57.138Z,10.37
2018-08-18T20:28:26.274Z,11.03
2018-08-18T20:30:55.434Z,8.73
2018-08-18T20:33:24.578Z,9.93
2018-08-18T20:35:53.735Z,8.93
2018-08-18T20:38:22.886Z,9.87
2018-08-18T20:40:52.039Z,9.35
2018-08-18T20:43:21.186Z,10.75
2018-08-18T20:45:50.628Z,10.67
2018-08-18T20:48:22.318Z,9.15
2018-08-18T20:50:51.774Z,9.87
2018-08-18T20:53:20.919Z,10.70
2018-08-18T20:55:56.783Z,9.80
2018-08-18T20:58:26.427Z,10.73
2018-08-18T21:00:55.594Z,9.37
2018-08-18T21:03:40.768Z,10.93
2018-08-18T21:06:09.922Z,8.70
2018-08-18T21:08:39.743Z,11.03
2018-08-18T21:11:09.824Z,11.10
2018-08-18T21:13:40.051Z,12.77
2018-08-18T21:16:10.098Z,9.38
2018-08-18T21:18:39.246Z,11.40
2018-08-18T21:21:36.330Z,10.53
2018-08-18T21:24:05.492Z,12.07
2018-08-18T21:26:34.652Z,11.63
2018-08-18T21:29:03.802Z,10.10
2018-08-18T21:31:32.986Z,9.77
2018-08-18T21:34:03.231Z,8.67
2018-08-18T21:36:32.842Z,10.03
2018-08-18T21:39:05.210Z,9.63
2018-08-18T21:41:37.591Z,9.50
2018-08-18T21:44:08.530Z,9.30
2018-08-18T21:46:38.038Z,8.90
2018-08-18T21:49:07.430Z,9.87
2018-08-18T21:51:36.595Z,9.33
2018-08-18T21:54:05.751Z,11.03
2018-08-18T21:56:40.258Z,9.83
2018-08-18T21:59:11.908Z,10.00
2018-08-18T22:01:41.110Z,11.50
2018-08-18T22:04:10.395Z,10.20
2018-08-18T22:06:39.555Z,8.10
2018-08-18T22:09:25.894Z,9.43
2018-08-18T22:11:55.055Z,10.50
2018-08-18T22:14:24.195Z,8.53
2018-08-18T22:16:57.311Z,9.00
2018-08-18T22:19:28.023Z,10.23
2018-08-18T22:21:57.210Z,9.17
2018-08-18T22:24:26.355Z,8.87
2018-08-18T22:26:55.502Z,7.30
2018-08-18T22:29:26.247Z,10.70
2018-08-18T22:31:55.407Z,8.23
2018-08-18T22:34:24.554Z,7.20
2018-08-18T22:37:03.174Z,7.47
2018-08-18T22:39:32.307Z,7.10
2018-08-18T22:42:01.454Z,7.63
2018-08-18T22:44:30.602Z,7.47
2018-08-18T22:47:00.048Z,7.07
2018-08-18T22:49:29.199Z,8.40
2018-08-18T22:51:58.350Z,8.00
2018-08-18T22:54:27.506Z,9.70
2018-08-18T22:57:03.786Z,7.78
2018-08-18T22:59:33.319Z,7.42
2018-08-18T23:02:02.812Z,6.53
2018-08-18T23:04:36.422Z,8.33
2018-08-18T23:07:06.630Z,7.40
2018-08-18T23:09:35.799Z,9.53
2018-08-18T23:12:06.906Z,5.78
2018-08-18T23:14:38.443Z,7.73
2018-08-18T23:17:09.732Z,7.83
2018-08-18T23:19:38.918Z,9.00
2018-08-18T23:22:18.477Z,7.33
2018-08-18T23:24:47.629Z,9.37
2018-08-18T23:27:16.771Z,8.37
2018-08-18T23:29:45.918Z,7.23
2018-08-18T23:32:24.862Z,7.83
2018-08-18T23:34:56.702Z,8.17
2018-08-18T23:37:25.854Z,6.30
2018-08-18T23:39:56.532Z,6.53
2018-08-18T23:42:26.437Z,8.30
2018-08-18T23:44:55.586Z,6.67
2018-08-18T23:47:24.727Z,7.03
2018-08-18T23:49:53.878Z,7.83
2018-08-18T23:52:23.011Z,9.03
2018-08-18T23:54:52.926Z,11.60
2018-08-18T23:57:22.844Z,8.47
2018-08-18T23:59:53.026Z,10.50
